Terminal Aerodrome Forecast
Issued by NWS Chicago, IL

Home | Current Version | Previous Version | Text Only | Print | Product List | Glossary Off
Versions: 1 2 3 4 5 6 7 8 9 10 11 12 13 14 15 16 17 18 19 20 21 22 23 24 25 26 27 28 29 30 31 32

000
FTUS43 KLOT 261400 AAA
TAFRFD
TAF AMD
KRFD 261400Z 2614/2712 18012KT P6SM SCT120 BKN200
     FM262000 21008KT P6SM SCT020 BKN150
     FM270100 19005KT P6SM OVC015
     FM270900 19007KT 3SM -DZRA BR OVC008=

USA.gov is the U.S. government's official web portal to all federal, state and local government web resources and services.